Terminal Aerodrome Forecast
Issued by NWS Cleveland, OH

Home | Current Version | Previous Version | Graphics & Text | Print | Product List | Glossary Off
Versions: 1 2 3 4 5 6 7 8 9 10 11 12 13 14 15 16 17 18 19 20 21 22 23 24 25 26 27 28

000
FTUS41 KCLE 170618 AAA
TAFCLE
TAF AMD
KCLE 170618Z 1706/1812 14008KT 5SM -RA BR BKN035
      TEMPO 1708/1712 2SM -RA BR OVC010
     FM171200 16012KT 4SM -RA BR SCT015 OVC025
     FM171900 24014G22KT P6SM OVC015=

USA.gov is the U.S. government's official web portal to all federal, state and local government web resources and services.